SBPA/POA METAR and TAF weather

Enter ICAO airport designator
Station Type Date Time Source
SBPA METAR 2021/10/22 19:00 UTC NOAA

SBPA 221900Z 13008KT 090V170 9999 FEW040 26/16 Q1009


Station Type Date Time Source
SBPA Decoded METAR 2021/10/22 19:00 UTC NOAA

Porto Alegre Aero-Porto , Brazil (SBPA) 30-00S 051-11W 3M
Oct 22, 2021 - 03:00 PM EDT / 2021.10.22 1900 UTC
Wind: from the SE (130 degrees) at 9 MPH (8 KT) (direction variable):0
Visibility: greater than 7 mile(s):0
Sky conditions: mostly clear
Temperature: 78 F (26 C)
Dew Point: 60 F (16 C)
Relative Humidity: 54%
Pressure (altimeter): 29.80 in. Hg (1009 hPa)
ob: SBPA 221900Z 13008KT 090V170 9999 FEW040 26/16 Q1009
cycle: 19

Station Type Date Time Source
SBPA TAF 2021/10/22 18:34 UTC NOAA

TAF SBPA 221500Z 2218/2318 11007KT 9999 SCT030 TN14/2308Z TX28/2317Z
BECMG 2306/2308 06005KT 2000 BR NSC
BECMG 2311/2313 35006KT CAVOK
RMK PED

Example: see airport list